createdAt,value
2018-04-25T00:00:30.651Z,10.40
2018-04-25T00:01:30.674Z,10.80
2018-04-25T00:02:30.710Z,10.80
2018-04-25T00:03:30.827Z,13.10
2018-04-25T00:04:30.752Z,11.40
2018-04-25T00:05:30.732Z,10.80
2018-04-25T00:06:30.741Z,10.00
2018-04-25T00:07:30.767Z,8.50
2018-04-25T00:08:30.903Z,8.10
2018-04-25T00:09:30.845Z,8.10
2018-04-25T00:10:30.811Z,9.70
2018-04-25T00:11:30.854Z,10.60
2018-04-25T00:12:30.842Z,10.70
2018-04-25T00:13:30.957Z,11.70
2018-04-25T00:14:30.939Z,11.90
2018-04-25T00:15:30.893Z,11.50
2018-04-25T00:16:30.920Z,9.90
2018-04-25T00:17:30.939Z,10.70
2018-04-25T00:18:31.037Z,12.60
2018-04-25T00:19:31.011Z,11.80
2018-04-25T00:20:30.965Z,11.70
2018-04-25T00:21:31.015Z,10.70
2018-04-25T00:22:31.007Z,11.70
2018-04-25T00:23:31.146Z,10.90
2018-04-25T00:24:31.181Z,11.30
2018-04-25T00:25:31.052Z,10.50
2018-04-25T00:26:31.071Z,10.80
2018-04-25T00:27:31.105Z,10.80
2018-04-25T00:28:31.119Z,11.10
2018-04-25T00:29:31.194Z,10.80
2018-04-25T00:30:31.129Z,11.20
2018-04-25T00:31:31.181Z,12.70
2018-04-25T00:32:31.153Z,12.30
2018-04-25T00:33:31.304Z,12.70
2018-04-25T00:34:31.260Z,13.00
2018-04-25T00:35:31.208Z,13.10
2018-04-25T00:36:31.249Z,12.60
2018-04-25T00:37:31.237Z,14.60
2018-04-25T00:38:31.384Z,14.90
2018-04-25T00:39:31.327Z,14.80
2018-04-25T00:40:31.312Z,14.70
2018-04-25T00:41:31.334Z,13.60
2018-04-25T00:42:31.347Z,15.10
2018-04-25T00:43:31.347Z,14.90
2018-04-25T00:44:31.424Z,15.40
2018-04-25T00:45:31.388Z,15.00
2018-04-25T00:46:31.402Z,17.20
2018-04-25T00:47:31.398Z,16.60
2018-04-25T00:48:31.513Z,16.70
2018-04-25T00:49:31.432Z,17.30
2018-04-25T00:50:31.438Z,17.90
2018-04-25T00:51:31.461Z,17.30
2018-04-25T00:52:31.479Z,17.30
2018-04-25T00:53:31.502Z,18.80
2018-04-25T00:54:31.635Z,17.50
2018-04-25T00:55:31.548Z,14.60
2018-04-25T00:56:31.535Z,15.30
2018-04-25T00:57:31.558Z,16.00
2018-04-25T00:58:31.665Z,16.30
2018-04-25T00:59:31.584Z,14.80
2018-04-25T01:00:31.597Z,13.80
2018-04-25T01:01:31.637Z,14.10
2018-04-25T01:02:31.631Z,13.60
2018-04-25T01:03:31.769Z,13.60
2018-04-25T01:04:31.740Z,12.50
2018-04-25T01:05:31.702Z,11.90
2018-04-25T01:06:31.719Z,14.40
2018-04-25T01:07:31.737Z,14.10
2018-04-25T01:08:31.851Z,16.30
2018-04-25T01:09:31.769Z,15.60
2018-04-25T01:10:31.783Z,15.90
2018-04-25T01:11:31.793Z,15.90
2018-04-25T01:12:31.815Z,16.00
2018-04-25T01:13:31.828Z,15.40
2018-04-25T01:14:31.970Z,14.90
2018-04-25T01:15:31.826Z,14.90
2018-04-25T01:16:31.862Z,14.50
2018-04-25T01:17:31.891Z,14.70
2018-04-25T01:18:31.877Z,14.90
2018-04-25T01:19:31.906Z,18.00
2018-04-25T01:20:31.924Z,15.20
2018-04-25T01:21:31.953Z,15.30
2018-04-25T01:22:31.947Z,14.90
2018-04-25T01:23:31.984Z,15.20
2018-04-25T01:24:32.071Z,15.00
2018-04-25T01:25:32.006Z,15.30
2018-04-25T01:26:32.006Z,15.50
2018-04-25T01:27:32.097Z,15.40
2018-04-25T01:28:32.095Z,16.00
2018-04-25T01:29:32.145Z,16.20
2018-04-25T01:30:32.131Z,16.40
2018-04-25T01:31:32.087Z,16.90
2018-04-25T01:32:32.107Z,17.00
2018-04-25T01:33:32.127Z,17.10
2018-04-25T01:34:32.271Z,17.10
2018-04-25T01:35:32.173Z,17.10
2018-04-25T01:36:32.186Z,17.20
2018-04-25T01:37:32.208Z,17.60
2018-04-25T01:38:32.212Z,17.70
2018-04-25T01:39:32.232Z,18.90
2018-04-25T01:40:32.232Z,17.10
2018-04-25T01:41:32.237Z,16.20
2018-04-25T01:42:32.276Z,15.80
2018-04-25T01:43:32.269Z,16.30
2018-04-25T01:44:32.505Z,17.50
2018-04-25T01:45:32.298Z,18.30
2018-04-25T01:46:32.319Z,18.20
2018-04-25T01:47:32.334Z,17.30
2018-04-25T01:48:32.379Z,18.60
2018-04-25T01:49:32.552Z,19.30
2018-04-25T01:50:32.401Z,19.40
2018-04-25T01:51:32.391Z,20.50
2018-04-25T01:52:32.434Z,20.50
2018-04-25T01:53:32.430Z,19.90
2018-04-25T01:54:32.542Z,18.70
2018-04-25T01:55:32.485Z,18.70
2018-04-25T01:56:32.501Z,18.70
2018-04-25T01:57:32.516Z,17.80
2018-04-25T01:58:32.526Z,17.90
2018-04-25T01:59:32.747Z,17.40
2018-04-25T02:00:32.537Z,18.60
2018-04-25T02:01:32.548Z,18.30
2018-04-25T02:02:32.563Z,18.20
2018-04-25T02:03:32.577Z,18.60
2018-04-25T02:04:32.703Z,19.80
2018-04-25T02:05:32.607Z,19.80
2018-04-25T02:06:32.625Z,18.10
2018-04-25T02:07:32.666Z,18.20
2018-04-25T02:08:32.680Z,18.60
2018-04-25T02:09:32.797Z,18.60
2018-04-25T02:10:32.709Z,19.10
2018-04-25T02:11:32.709Z,19.90
2018-04-25T02:12:32.716Z,19.90
2018-04-25T02:13:32.727Z,20.50
2018-04-25T02:14:32.766Z,20.60
2018-04-25T02:15:32.770Z,20.90
2018-04-25T02:16:32.797Z,21.00
2018-04-25T02:17:32.792Z,21.20
2018-04-25T02:18:32.831Z,23.30
2018-04-25T02:19:32.932Z,23.60
2018-04-25T02:20:32.866Z,23.30
2018-04-25T02:21:32.847Z,23.90
2018-04-25T02:22:32.872Z,24.10
2018-04-25T02:23:32.883Z,22.90
2018-04-25T02:24:33.024Z,24.90
2018-04-25T02:25:32.912Z,25.20
2018-04-25T02:26:32.938Z,24.70
2018-04-25T02:27:32.967Z,24.90
2018-04-25T02:28:32.968Z,25.40
2018-04-25T02:29:33.083Z,25.90
2018-04-25T02:30:32.990Z,25.30
2018-04-25T02:31:33.011Z,25.90
2018-04-25T02:32:33.032Z,26.80
2018-04-25T02:33:33.064Z,28.50
2018-04-25T02:34:33.141Z,27.60
2018-04-25T02:35:33.063Z,28.60
2018-04-25T02:36:33.089Z,27.90
2018-04-25T02:37:33.105Z,28.30
2018-04-25T02:38:33.138Z,29.00
2018-04-25T02:39:33.124Z,31.80
2018-04-25T02:40:33.166Z,30.70
2018-04-25T02:41:33.177Z,30.30
2018-04-25T02:42:33.168Z,30.20
2018-04-25T02:43:33.188Z,29.60
2018-04-25T02:44:33.379Z,31.60
2018-04-25T02:45:33.219Z,30.50
2018-04-25T02:46:33.234Z,32.50
2018-04-25T02:47:33.266Z,33.90
2018-04-25T02:48:33.272Z,35.60
2018-04-25T02:49:33.297Z,34.90
2018-04-25T02:50:33.393Z,35.80
2018-04-25T02:51:33.312Z,34.70
2018-04-25T02:52:33.316Z,37.60
2018-04-25T02:53:33.358Z,40.20
2018-04-25T02:54:33.375Z,38.90
2018-04-25T02:55:33.461Z,39.10
2018-04-25T02:56:33.377Z,37.10
2018-04-25T02:57:33.391Z,38.30
2018-04-25T02:58:33.413Z,38.20
2018-04-25T02:59:33.453Z,37.50
2018-04-25T03:00:33.557Z,38.40
2018-04-25T03:01:33.451Z,36.50
2018-04-25T03:02:33.480Z,37.80
2018-04-25T03:03:33.481Z,36.90
2018-04-25T03:04:33.500Z,35.40
2018-04-25T03:05:33.641Z,36.60
2018-04-25T03:06:33.523Z,39.50
2018-04-25T03:07:33.566Z,41.50
2018-04-25T03:08:33.569Z,43.60
2018-04-25T03:09:33.576Z,42.30
2018-04-25T03:10:33.586Z,43.20
2018-04-25T03:11:33.626Z,43.20
2018-04-25T03:12:33.646Z,44.60
2018-04-25T03:13:33.634Z,44.50
2018-04-25T03:14:33.670Z,44.30
2018-04-25T03:15:33.767Z,40.30
2018-04-25T03:16:33.680Z,39.70
2018-04-25T03:17:33.717Z,40.70
2018-04-25T03:18:33.717Z,39.30
2018-04-25T03:19:33.724Z,41.70
2018-04-25T03:20:33.836Z,41.40
2018-04-25T03:21:33.750Z,40.30
2018-04-25T03:22:33.857Z,39.40
2018-04-25T03:23:33.807Z,39.50
2018-04-25T03:24:33.790Z,43.00
2018-04-25T03:25:33.835Z,43.30
2018-04-25T03:26:33.822Z,42.80
2018-04-25T03:27:33.870Z,40.30
2018-04-25T03:28:33.879Z,41.30
2018-04-25T03:29:33.865Z,43.40
2018-04-25T03:30:34.013Z,43.70
2018-04-25T03:31:33.899Z,44.50
2018-04-25T03:32:33.916Z,44.40
2018-04-25T03:33:33.929Z,44.20
2018-04-25T03:34:33.945Z,44.20
2018-04-25T03:35:34.063Z,44.10
2018-04-25T03:36:33.993Z,43.50
2018-04-25T03:37:33.996Z,42.40
2018-04-25T03:38:34.004Z,39.70
2018-04-25T03:39:34.036Z,42.70
2018-04-25T03:40:34.142Z,42.10
2018-04-25T03:41:34.058Z,41.80
2018-04-25T03:42:34.067Z,42.10
2018-04-25T03:43:34.074Z,39.50
2018-04-25T03:44:34.091Z,40.30
2018-04-25T03:45:34.119Z,39.90
2018-04-25T03:46:34.155Z,39.70
2018-04-25T03:47:34.149Z,39.50
2018-04-25T03:48:34.169Z,37.70
2018-04-25T03:49:34.195Z,38.30
2018-04-25T03:50:34.289Z,38.20
2018-04-25T03:51:34.202Z,39.90
2018-04-25T03:52:34.226Z,37.70
2018-04-25T03:53:34.226Z,38.60
2018-04-25T03:54:34.252Z,36.00
2018-04-25T03:55:34.254Z,35.60
2018-04-25T03:56:34.285Z,37.40
2018-04-25T03:57:34.288Z,37.60
2018-04-25T03:58:34.327Z,36.60
2018-04-25T03:59:34.327Z,36.20
2018-04-25T04:00:34.334Z,38.80
2018-04-25T04:01:34.444Z,36.60
2018-04-25T04:02:34.358Z,35.00
2018-04-25T04:03:34.375Z,37.10
2018-04-25T04:04:34.388Z,37.80
2018-04-25T04:05:34.428Z,34.30
2018-04-25T04:06:34.547Z,35.40
2018-04-25T04:07:34.435Z,35.80
2018-04-25T04:08:34.450Z,37.20
2018-04-25T04:09:34.464Z,36.70
2018-04-25T04:10:34.484Z,37.60
2018-04-25T04:11:34.596Z,36.60
2018-04-25T04:12:34.513Z,35.80
2018-04-25T04:13:34.528Z,35.40
2018-04-25T04:14:34.535Z,38.90
2018-04-25T04:15:34.551Z,37.80
2018-04-25T04:16:34.672Z,37.80
2018-04-25T04:17:34.595Z,36.90
2018-04-25T04:18:34.627Z,37.00
2018-04-25T04:19:34.634Z,37.20
2018-04-25T04:20:34.651Z,37.30
2018-04-25T04:21:34.742Z,38.40
2018-04-25T04:22:34.686Z,37.00
2018-04-25T04:23:34.673Z,37.80
2018-04-25T04:24:34.715Z,38.00
2018-04-25T04:25:34.735Z,37.60
2018-04-25T04:26:34.824Z,37.60
2018-04-25T04:27:34.753Z,37.20
2018-04-25T04:28:34.754Z,36.90
2018-04-25T04:29:34.769Z,37.10
2018-04-25T04:30:34.798Z,38.00
2018-04-25T04:31:34.896Z,36.70
2018-04-25T04:32:34.816Z,35.90
2018-04-25T04:33:34.817Z,35.10
2018-04-25T04:34:34.864Z,35.40
2018-04-25T04:35:34.855Z,35.30
2018-04-25T04:36:34.891Z,36.50
2018-04-25T04:37:34.876Z,37.80
2018-04-25T04:38:34.894Z,36.80
2018-04-25T04:39:34.912Z,38.50
2018-04-25T04:40:34.948Z,39.40
2018-04-25T04:41:35.062Z,40.30
2018-04-25T04:42:34.953Z,40.00
2018-04-25T04:43:34.999Z,39.30
2018-04-25T04:44:34.982Z,40.00
2018-04-25T04:45:34.997Z,41.00
2018-04-25T04:46:35.025Z,40.30
2018-04-25T04:47:35.025Z,39.40
2018-04-25T04:48:35.050Z,41.10
2018-04-25T04:49:35.154Z,41.60
2018-04-25T04:50:35.095Z,40.20
2018-04-25T04:51:35.213Z,38.70
2018-04-25T04:52:35.115Z,40.20
2018-04-25T04:53:35.123Z,40.50
2018-04-25T04:54:35.133Z,42.00
2018-04-25T04:55:35.175Z,41.70
2018-04-25T04:56:35.187Z,40.90
2018-04-25T04:57:35.175Z,42.90
2018-04-25T04:58:35.188Z,44.50
2018-04-25T04:59:35.259Z,44.80
2018-04-25T05:00:35.217Z,44.10
2018-04-25T05:01:35.241Z,47.30
2018-04-25T05:02:35.252Z,46.90
2018-04-25T05:03:35.294Z,46.80
2018-04-25T05:04:35.280Z,47.80
2018-04-25T05:05:35.293Z,47.50
2018-04-25T05:06:35.311Z,47.30
2018-04-25T05:07:35.323Z,46.40
2018-04-25T05:08:35.364Z,46.80
2018-04-25T05:09:35.381Z,47.30
2018-04-25T05:10:35.397Z,48.90
2018-04-25T05:11:35.485Z,50.20
2018-04-25T05:12:35.402Z,49.50
2018-04-25T05:13:35.425Z,50.70
2018-04-25T05:14:35.430Z,54.10
2018-04-25T05:15:35.459Z,53.00
2018-04-25T05:16:35.470Z,53.80
2018-04-25T05:17:35.472Z,55.90
2018-04-25T05:18:35.497Z,56.40
2018-04-25T05:19:35.528Z,54.60
2018-04-25T05:20:35.545Z,55.70
2018-04-25T05:21:35.664Z,56.30
2018-04-25T05:22:35.543Z,55.60
2018-04-25T05:23:35.597Z,55.10
2018-04-25T05:24:35.616Z,54.90
2018-04-25T05:25:35.597Z,56.70
2018-04-25T05:26:35.671Z,59.40
2018-04-25T05:27:35.649Z,59.80
2018-04-25T05:28:35.638Z,58.10
2018-04-25T05:29:35.652Z,58.80
2018-04-25T05:30:35.666Z,59.70
2018-04-25T05:31:35.687Z,59.40
2018-04-25T05:32:35.719Z,60.40
2018-04-25T05:33:35.720Z,59.10
2018-04-25T05:34:35.753Z,59.90
2018-04-25T05:35:35.738Z,61.80
2018-04-25T05:36:35.879Z,62.00
2018-04-25T05:37:35.775Z,65.50
2018-04-25T05:38:35.864Z,65.80
2018-04-25T05:39:35.805Z,64.60
2018-04-25T05:40:35.841Z,64.80
2018-04-25T05:41:36.010Z,70.90
2018-04-25T05:42:35.849Z,67.00
2018-04-25T05:43:35.864Z,67.50
2018-04-25T05:44:35.895Z,67.70
2018-04-25T05:45:35.915Z,63.80
2018-04-25T05:46:36.027Z,64.80
2018-04-25T05:47:35.942Z,65.00
2018-04-25T05:48:35.957Z,64.30
2018-04-25T05:49:35.973Z,61.30
2018-04-25T05:50:35.957Z,61.40
2018-04-25T05:51:36.080Z,62.80
2018-04-25T05:52:36.015Z,61.60
2018-04-25T05:53:36.009Z,61.70
2018-04-25T05:54:36.014Z,60.80
2018-04-25T05:55:36.030Z,58.80
2018-04-25T05:56:36.145Z,61.30
2018-04-25T05:57:36.059Z,63.60
2018-04-25T05:58:36.076Z,63.10
2018-04-25T05:59:36.091Z,63.50
2018-04-25T06:00:36.103Z,61.90
2018-04-25T06:01:36.216Z,62.80
2018-04-25T06:02:36.144Z,61.90
2018-04-25T06:03:36.148Z,61.70
2018-04-25T06:04:36.168Z,62.40
2018-04-25T06:05:36.199Z,62.40
2018-04-25T06:06:36.200Z,61.30
2018-04-25T06:07:36.306Z,59.50
2018-04-25T06:08:36.214Z,60.40
2018-04-25T06:09:36.266Z,61.20
2018-04-25T06:10:36.251Z,61.90
2018-04-25T06:11:36.276Z,60.40
2018-04-25T06:12:36.468Z,61.10
2018-04-25T06:13:36.298Z,59.40
2018-04-25T06:14:36.303Z,62.50
2018-04-25T06:15:36.347Z,60.90
2018-04-25T06:16:36.335Z,61.90
2018-04-25T06:17:36.449Z,61.50
2018-04-25T06:18:36.370Z,61.60
2018-04-25T06:19:36.407Z,62.70
2018-04-25T06:20:36.419Z,63.60
2018-04-25T06:21:36.435Z,63.30
2018-04-25T06:22:36.522Z,62.60
2018-04-25T06:23:36.440Z,65.00
2018-04-25T06:24:36.474Z,64.90
2018-04-25T06:25:36.472Z,63.80
2018-04-25T06:26:36.593Z,62.80
2018-04-25T06:27:36.621Z,64.10
2018-04-25T06:28:36.508Z,64.80
2018-04-25T06:29:36.527Z,66.70
2018-04-25T06:30:36.562Z,64.80
2018-04-25T06:31:36.544Z,65.70
2018-04-25T06:32:36.572Z,61.70
2018-04-25T06:33:36.586Z,63.40
2018-04-25T06:34:36.606Z,63.80
2018-04-25T06:35:36.614Z,64.50
2018-04-25T06:36:36.622Z,62.80
2018-04-25T06:37:36.664Z,65.60
2018-04-25T06:38:36.644Z,64.90
2018-04-25T06:39:36.672Z,66.60
2018-04-25T06:40:36.695Z,67.10
2018-04-25T06:41:36.710Z,63.80
2018-04-25T06:42:36.802Z,62.40
2018-04-25T06:43:36.747Z,64.10
2018-04-25T06:44:36.743Z,66.10
2018-04-25T06:45:36.753Z,63.60
2018-04-25T06:46:36.771Z,72.70
2018-04-25T06:47:36.811Z,69.80
2018-04-25T06:48:36.793Z,74.90
2018-04-25T06:49:36.837Z,76.10
2018-04-25T06:50:36.854Z,75.70
2018-04-25T06:51:36.843Z,75.00
2018-04-25T06:52:36.853Z,76.80
2018-04-25T06:53:36.893Z,87.20
2018-04-25T06:54:36.903Z,88.40
2018-04-25T06:55:36.926Z,87.30
2018-04-25T06:56:36.938Z,89.90
2018-04-25T06:57:37.067Z,86.70
2018-04-25T06:58:36.966Z,88.60
2018-04-25T06:59:36.952Z,87.40
2018-04-25T07:00:36.966Z,86.80
2018-04-25T07:01:37.004Z,87.40
2018-04-25T07:02:37.021Z,87.60
2018-04-25T07:03:37.036Z,87.00
2018-04-25T07:04:37.049Z,82.50
2018-04-25T07:05:37.061Z,79.30
2018-04-25T07:06:37.074Z,80.50
2018-04-25T07:07:37.192Z,80.20
2018-04-25T07:08:37.110Z,85.70
2018-04-25T07:09:37.112Z,84.00
2018-04-25T07:10:37.122Z,81.10
2018-04-25T07:11:37.122Z,84.00
2018-04-25T07:12:37.269Z,83.60
2018-04-25T07:13:37.155Z,81.10
2018-04-25T07:14:37.166Z,76.70
2018-04-25T07:15:37.177Z,78.50
2018-04-25T07:16:37.192Z,73.60
2018-04-25T07:17:37.206Z,75.10
2018-04-25T07:18:37.224Z,76.20
2018-04-25T07:19:37.242Z,76.80
2018-04-25T07:20:37.248Z,75.60
2018-04-25T07:21:37.284Z,77.50
2018-04-25T07:22:37.281Z,79.50
2018-04-25T07:23:37.323Z,79.70
2018-04-25T07:24:37.343Z,78.90
2018-04-25T07:25:37.348Z,80.40
2018-04-25T07:26:37.343Z,77.90
2018-04-25T07:27:37.454Z,79.50
2018-04-25T07:28:37.364Z,79.30
2018-04-25T07:29:37.436Z,75.40
2018-04-25T07:30:37.392Z,76.40
2018-04-25T07:31:37.435Z,79.20
2018-04-25T07:32:37.552Z,81.10
2018-04-25T07:33:37.440Z,80.10
2018-04-25T07:34:37.478Z,76.20
2018-04-25T07:35:37.467Z,77.30
2018-04-25T07:36:37.482Z,82.20
2018-04-25T07:37:37.601Z,83.10
2018-04-25T07:38:37.523Z,84.50
2018-04-25T07:39:37.554Z,88.80
2018-04-25T07:40:37.539Z,88.00
2018-04-25T07:41:37.558Z,96.80
2018-04-25T07:42:37.573Z,92.40
2018-04-25T07:43:37.584Z,91.00
2018-04-25T07:44:37.605Z,93.10
2018-04-25T07:45:37.641Z,86.10
2018-04-25T07:46:37.651Z,88.40
2018-04-25T07:47:37.749Z,87.90
2018-04-25T07:48:37.655Z,87.10
2018-04-25T07:49:37.683Z,86.40
2018-04-25T07:50:37.705Z,90.10
2018-04-25T07:51:37.725Z,88.10
2018-04-25T07:52:37.703Z,85.90
2018-04-25T07:53:37.720Z,85.50
2018-04-25T07:54:37.740Z,82.50
2018-04-25T07:55:37.757Z,80.50
2018-04-25T07:56:37.778Z,79.20
2018-04-25T07:57:37.943Z,79.60
2018-04-25T07:58:37.798Z,75.90
2018-04-25T07:59:37.812Z,75.00
2018-04-25T08:00:37.850Z,72.90
2018-04-25T08:01:37.868Z,72.80
2018-04-25T08:02:37.952Z,73.90
2018-04-25T08:03:37.897Z,74.10
2018-04-25T08:04:37.885Z,73.60
2018-04-25T08:05:37.896Z,68.70
2018-04-25T08:06:37.943Z,70.60
2018-04-25T08:07:37.928Z,73.00
2018-04-25T08:08:37.967Z,71.20
2018-04-25T08:09:37.956Z,70.70
2018-04-25T08:10:37.997Z,71.20
2018-04-25T08:11:37.996Z,71.20
2018-04-25T08:12:38.100Z,68.90
2018-04-25T08:13:38.013Z,65.10
2018-04-25T08:14:38.037Z,66.40
2018-04-25T08:15:38.057Z,69.50
2018-04-25T08:16:38.073Z,69.80
2018-04-25T08:17:38.174Z,64.90
2018-04-25T08:18:38.092Z,69.50
2018-04-25T08:19:38.118Z,73.40
2018-04-25T08:20:38.113Z,74.20
2018-04-25T08:21:38.128Z,75.00
2018-04-25T08:22:38.145Z,74.30
2018-04-25T08:23:38.322Z,69.10
2018-04-25T08:24:38.200Z,71.20
2018-04-25T08:25:38.220Z,69.30
2018-04-25T08:26:38.200Z,66.50
2018-04-25T08:27:38.229Z,66.30
2018-04-25T08:28:38.331Z,66.20
2018-04-25T08:29:38.253Z,68.20
2018-04-25T08:30:38.267Z,70.10
2018-04-25T08:31:38.273Z,66.60
2018-04-25T08:32:38.291Z,68.40
2018-04-25T08:33:38.505Z,65.70
2018-04-25T08:34:38.345Z,67.00
2018-04-25T08:35:38.332Z,67.60
2018-04-25T08:36:38.357Z,68.90
2018-04-25T08:37:38.389Z,69.20
2018-04-25T08:38:38.525Z,71.00
2018-04-25T08:39:38.416Z,70.60
2018-04-25T08:40:38.404Z,70.90
2018-04-25T08:41:38.425Z,67.90
2018-04-25T08:42:38.445Z,70.70
2018-04-25T08:43:38.598Z,69.90
2018-04-25T08:44:38.544Z,66.20
2018-04-25T08:45:38.512Z,69.20
2018-04-25T08:46:38.521Z,73.00
2018-04-25T08:47:38.520Z,73.30
2018-04-25T08:48:38.538Z,75.50
2018-04-25T08:49:38.567Z,71.50
2018-04-25T08:50:38.558Z,71.50
2018-04-25T08:51:38.592Z,75.20
2018-04-25T08:52:38.595Z,74.00
2018-04-25T08:53:38.726Z,72.80
2018-04-25T08:54:38.635Z,71.90
2018-04-25T08:55:38.649Z,71.00
2018-04-25T08:56:38.667Z,70.60
2018-04-25T08:57:38.658Z,72.30
2018-04-25T08:58:38.696Z,67.90
2018-04-25T08:59:38.699Z,68.60
2018-04-25T09:00:38.725Z,70.30
2018-04-25T09:01:38.744Z,67.70
2018-04-25T09:02:38.741Z,67.90
2018-04-25T09:03:38.746Z,66.50
2018-04-25T09:04:38.780Z,67.20
2018-04-25T09:05:38.799Z,66.80
2018-04-25T09:06:38.787Z,69.00
2018-04-25T09:07:38.801Z,67.90
2018-04-25T09:08:38.842Z,66.80
2018-04-25T09:09:38.829Z,68.90
2018-04-25T09:10:38.842Z,66.90
2018-04-25T09:11:38.881Z,66.30
2018-04-25T09:12:38.873Z,62.00
2018-04-25T09:13:39.003Z,66.50
2018-04-25T09:14:38.906Z,65.00
2018-04-25T09:15:39.012Z,67.90
2018-04-25T09:16:38.955Z,67.90
2018-04-25T09:17:38.947Z,66.20
2018-04-25T09:18:39.090Z,65.40
2018-04-25T09:19:38.969Z,69.60
2018-04-25T09:20:38.989Z,64.20
2018-04-25T09:21:39.036Z,60.20
2018-04-25T09:22:39.026Z,65.40
2018-04-25T09:23:39.133Z,56.90
2018-04-25T09:24:39.100Z,59.80
2018-04-25T09:25:39.065Z,59.90
2018-04-25T09:26:39.101Z,54.40
2018-04-25T09:27:39.100Z,44.30
2018-04-25T09:28:39.204Z,43.10
2018-04-25T09:29:39.119Z,36.00
2018-04-25T09:30:39.160Z,37.50
2018-04-25T09:31:39.150Z,37.10
2018-04-25T09:32:39.169Z,38.30
2018-04-25T09:33:39.305Z,37.80
2018-04-25T09:34:39.192Z,40.70
2018-04-25T09:35:39.202Z,47.60
2018-04-25T09:36:39.224Z,45.50
2018-04-25T09:37:39.238Z,47.90
2018-04-25T09:38:39.351Z,48.90
2018-04-25T09:39:39.264Z,46.00
2018-04-25T09:40:39.306Z,47.50
2018-04-25T09:41:39.320Z,49.00
2018-04-25T09:42:39.309Z,50.60
2018-04-25T09:43:39.424Z,46.50
2018-04-25T09:44:39.335Z,47.40
2018-04-25T09:45:39.379Z,45.20
2018-04-25T09:46:39.381Z,46.10
2018-04-25T09:47:39.415Z,44.30
2018-04-25T09:48:39.527Z,45.50
2018-04-25T09:49:39.421Z,46.10
2018-04-25T09:50:39.422Z,45.00
2018-04-25T09:51:39.509Z,45.70
2018-04-25T09:52:39.455Z,46.10
2018-04-25T09:53:39.568Z,46.70
2018-04-25T09:54:39.486Z,49.40
2018-04-25T09:55:39.521Z,48.70
2018-04-25T09:56:39.536Z,49.50
2018-04-25T09:57:39.559Z,49.10
2018-04-25T09:58:39.540Z,50.00
2018-04-25T09:59:39.559Z,48.30
2018-04-25T10:00:39.577Z,53.40
2018-04-25T10:01:39.593Z,54.90
2018-04-25T10:02:39.597Z,51.70
2018-04-25T10:03:39.619Z,49.90
2018-04-25T10:04:39.655Z,55.10
2018-04-25T10:05:39.646Z,61.40
2018-04-25T10:06:39.682Z,60.60
2018-04-25T10:07:39.671Z,58.70
2018-04-25T10:08:39.787Z,59.20
2018-04-25T10:09:39.700Z,51.70
2018-04-25T10:10:39.743Z,48.80
2018-04-25T10:11:39.733Z,48.90
2018-04-25T10:12:39.741Z,51.30
2018-04-25T10:13:39.861Z,53.90
2018-04-25T10:14:39.804Z,55.90
2018-04-25T10:15:39.821Z,55.60
2018-04-25T10:16:39.806Z,56.90
2018-04-25T10:17:39.830Z,58.30
2018-04-25T10:18:39.836Z,59.30
2018-04-25T10:19:39.849Z,57.20
2018-04-25T10:20:39.860Z,56.60
2018-04-25T10:21:39.922Z,58.90
2018-04-25T10:22:39.905Z,58.60
2018-04-25T10:23:39.909Z,59.30
2018-04-25T10:24:39.924Z,60.60
2018-04-25T10:25:39.959Z,55.00
2018-04-25T10:26:39.974Z,57.20
2018-04-25T10:27:39.963Z,61.60
2018-04-25T10:28:40.083Z,65.20
2018-04-25T10:29:40.019Z,63.60
2018-04-25T10:30:40.023Z,62.10
2018-04-25T10:31:40.026Z,61.70
2018-04-25T10:32:40.053Z,64.60
2018-04-25T10:33:40.180Z,56.70
2018-04-25T10:34:40.075Z,51.40
2018-04-25T10:35:40.087Z,51.00
2018-04-25T10:36:40.097Z,51.10
2018-04-25T10:37:40.138Z,50.70
2018-04-25T10:38:40.217Z,53.10
2018-04-25T10:39:40.147Z,59.40
2018-04-25T10:40:40.159Z,56.10
2018-04-25T10:41:40.199Z,55.20
2018-04-25T10:42:40.223Z,49.00
2018-04-25T10:43:40.202Z,49.50
2018-04-25T10:44:40.318Z,49.10
2018-04-25T10:45:40.262Z,50.20
2018-04-25T10:46:40.260Z,51.10
2018-04-25T10:47:40.263Z,50.00
2018-04-25T10:48:40.305Z,51.00
2018-04-25T10:49:40.445Z,52.70
2018-04-25T10:50:40.332Z,53.20
2018-04-25T10:51:40.356Z,53.10
2018-04-25T10:52:40.340Z,53.10
2018-04-25T10:53:40.352Z,48.80
2018-04-25T10:54:40.469Z,47.30
2018-04-25T10:55:40.391Z,46.90
2018-04-25T10:56:40.425Z,48.70
2018-04-25T10:57:40.445Z,47.20
2018-04-25T10:58:40.461Z,48.20
2018-04-25T10:59:40.554Z,43.70
2018-04-25T11:00:40.485Z,44.20
2018-04-25T11:01:40.472Z,42.60
2018-04-25T11:02:40.519Z,38.80
2018-04-25T11:03:40.534Z,38.80
2018-04-25T11:04:40.724Z,38.60
2018-04-25T11:05:40.646Z,34.40
2018-04-25T11:06:40.577Z,35.40
2018-04-25T11:07:40.568Z,36.10
2018-04-25T11:08:40.588Z,37.80
2018-04-25T11:09:40.615Z,37.30
2018-04-25T11:10:40.819Z,35.70
2018-04-25T11:11:40.633Z,36.90
2018-04-25T11:12:40.645Z,38.00
2018-04-25T11:13:40.692Z,36.80
2018-04-25T11:14:40.778Z,36.30
2018-04-25T11:15:40.708Z,36.90
2018-04-25T11:16:40.737Z,35.80
2018-04-25T11:17:40.722Z,36.30
2018-04-25T11:18:40.744Z,34.60
2018-04-25T11:19:40.878Z,35.50
2018-04-25T11:20:40.768Z,35.00
2018-04-25T11:21:40.788Z,34.90
2018-04-25T11:22:40.830Z,32.60
2018-04-25T11:23:40.819Z,32.40
2018-04-25T11:24:40.932Z,31.50
2018-04-25T11:25:40.846Z,34.10
2018-04-25T11:26:40.992Z,30.90
2018-04-25T11:27:40.912Z,29.90
2018-04-25T11:28:40.895Z,30.70
2018-04-25T11:29:41.008Z,28.70
2018-04-25T11:30:40.920Z,29.20
2018-04-25T11:31:40.943Z,28.40
2018-04-25T11:32:40.969Z,30.00
2018-04-25T11:33:41.005Z,29.30
2018-04-25T11:34:41.169Z,30.10
2018-04-25T11:35:41.205Z,29.40
2018-04-25T11:36:41.021Z,30.40
2018-04-25T11:37:41.048Z,29.60
2018-04-25T11:38:41.057Z,28.20
2018-04-25T11:39:41.163Z,29.60
2018-04-25T11:40:41.078Z,29.10
2018-04-25T11:41:41.114Z,29.10
2018-04-25T11:42:41.137Z,29.50
2018-04-25T11:43:41.139Z,29.90
2018-04-25T11:44:41.372Z,35.20
2018-04-25T11:45:41.173Z,33.60
2018-04-25T11:46:41.189Z,30.10
2018-04-25T11:47:41.221Z,29.70
2018-04-25T11:48:41.233Z,30.70
2018-04-25T11:49:41.331Z,30.90
2018-04-25T11:50:41.271Z,31.30
2018-04-25T11:51:41.256Z,31.50
2018-04-25T11:52:41.307Z,31.00
2018-04-25T11:53:41.283Z,29.00
2018-04-25T11:54:41.430Z,31.60
2018-04-25T11:55:41.345Z,30.90
2018-04-25T11:56:41.339Z,29.60
2018-04-25T11:57:41.352Z,28.20
2018-04-25T11:58:41.375Z,28.60
2018-04-25T11:59:41.577Z,26.40
2018-04-25T12:00:41.405Z,27.30
2018-04-25T12:01:41.448Z,26.90
2018-04-25T12:02:41.434Z,29.30
2018-04-25T12:03:41.458Z,28.60
2018-04-25T12:04:41.495Z,29.40
2018-04-25T12:05:41.485Z,28.80
2018-04-25T12:06:41.500Z,28.30
2018-04-25T12:07:41.513Z,28.30
2018-04-25T12:08:41.537Z,27.30
2018-04-25T12:09:41.572Z,27.20
2018-04-25T12:10:41.570Z,27.60
2018-04-25T12:11:41.589Z,25.60
2018-04-25T12:12:41.603Z,26.90
2018-04-25T12:13:41.711Z,27.00
2018-04-25T12:14:41.735Z,27.30
2018-04-25T12:15:41.656Z,29.30
2018-04-25T12:16:41.686Z,30.10
2018-04-25T12:17:41.695Z,29.80
2018-04-25T12:18:41.815Z,28.70
2018-04-25T12:19:41.834Z,29.00
2018-04-25T12:20:41.765Z,29.90
2018-04-25T12:21:41.783Z,28.80
2018-04-25T12:22:41.779Z,26.60
2018-04-25T12:23:41.792Z,28.10
2018-04-25T12:24:41.840Z,28.30
2018-04-25T12:25:41.858Z,29.20
2018-04-25T12:26:41.851Z,27.70
2018-04-25T12:27:41.893Z,26.30
2018-04-25T12:28:41.885Z,24.50
2018-04-25T12:29:42.007Z,24.00
2018-04-25T12:30:41.918Z,23.60
2018-04-25T12:31:41.946Z,23.40
2018-04-25T12:32:41.986Z,26.00
2018-04-25T12:33:41.988Z,27.60
2018-04-25T12:34:42.096Z,27.30
2018-04-25T12:35:42.013Z,28.80
2018-04-25T12:36:42.033Z,29.90
2018-04-25T12:37:42.054Z,29.10
2018-04-25T12:38:42.099Z,26.20
2018-04-25T12:39:42.394Z,23.60
2018-04-25T12:40:42.117Z,23.60
2018-04-25T12:41:42.159Z,23.50
2018-04-25T12:42:42.179Z,27.40
2018-04-25T12:43:42.168Z,26.30
2018-04-25T12:44:42.293Z,24.70
2018-04-25T12:45:42.221Z,26.30
2018-04-25T12:46:42.228Z,24.10
2018-04-25T12:47:42.248Z,23.50
2018-04-25T12:48:42.271Z,23.40
2018-04-25T12:49:42.404Z,24.00
2018-04-25T12:50:42.306Z,26.50
2018-04-25T12:51:42.337Z,25.40
2018-04-25T12:52:42.364Z,24.40